Ivalo, Suomi

22. syyskuuta 2017 klo 12:42 (EEST) (GMT +0300)
Ivalo | | Change Station

Kork 482 ft 68.62 °N, 27.42 °E | Updated 22 minutes ago

Täysin pilvistä
Täysin pilvistä
48 °F
Tuntuu kuin 48 °F
N
12
Tuuli Suunnaltaan vaihteleva Tuuli ilmansuunnasta Etelän ja lounaan välinen

Tänään
Korkea -- | Matala -- °F
--% Sateen mahd.
Eilen
Korkea -- | Matala -- °F
Precip. -- tuumaa
Ilmanpaine 30.39 tuumaa
Näkyvyys 6.2 mailia
Pilviä Täysin pilvistä 1300 ft
Kastepiste 45 °F
Ilmankosteus 87%
Sademäärä 0.00 tuumaa
Lumensyvyys Ei saatavilla
6:50 AM 7:12 PM
Kasvava sirppi, 5% visible
METAR EFIV 220920Z AUTO 20010KT 9999 OVC013 09/07 Q1029
Ilmanpaine 30.39 tuumaa
Näkyvyys 6.2 mailia
Pilviä Täysin pilvistä 1300 ft
Kastepiste 45 °F
Ilmankosteus 87%
Sademäärä 0.00 tuumaa
Lumensyvyys Ei saatavilla
6:50 AM 7:12 PM
Kasvava sirppi, 5% visible
METAR EFIV 220920Z AUTO 20010KT 9999 OVC013 09/07 Q1029

Get Severe Weather Alerts

Thanks for signing up!

Be on the lookout for a verification email in your inbox.

You'll start receiving the daily forecast at 6 AM.

×

10-Day Weather Forecast

×

Almanac

Tähtitiede

Sep. 22, 2017 Nousuaika Laskuaika
Valoisa aika
Porvarillinen hämärä
Nauttinen hämärä
Astronominen hämärä
Kuu
Näkyvän valon pituus
Päivän pituus
Tomorrow will be .
, % of the Moon is Illuminated

Tämän päivän ennätykset

Country Highs Country Lows

Community

WunderPhotos

Category 6

Welcome to Category 6. This is the collective home for Weather Underground's featured writeups by Dr. Jeff Masters (right), Bob Henson (left), Chris Burt, and other regular contributors.

Nearby

Ilmanlaatu

  Ilmanlaatu AQ Index Pollutant
Not available.

Lumensyvyys

Station Depth Korkeus

Maanjäristysaktiivisuus

Paikkakunta Distance Mag. Time & Date
Minimum magnitude displayed is 2.5.

Coastal Water Temperatures

Paikka Lämpötila

Stations

Lähimmät sääasemat

Aseman sijainti Lämpötila Tuulen hyytävyys Kastepiste Ilmankosteus Tuuli Precip. Kork Päivitetty Tyyppi